createdAt,value
2017-12-17T00:00:55.740Z,99.90
2017-12-17T00:02:56.886Z,99.90
2017-12-17T00:04:57.882Z,99.90
2017-12-17T00:06:59.606Z,99.90
2017-12-17T00:09:00.710Z,99.90
2017-12-17T00:11:01.682Z,99.90
2017-12-17T00:13:02.704Z,99.90
2017-12-17T00:15:03.699Z,99.90
2017-12-17T00:17:04.689Z,99.90
2017-12-17T00:19:06.420Z,99.90
2017-12-17T00:21:07.413Z,99.90
2017-12-17T00:23:08.436Z,99.90
2017-12-17T00:25:10.196Z,99.90
2017-12-17T00:27:11.164Z,99.90
2017-12-17T00:29:12.917Z,99.90
2017-12-17T00:31:14.666Z,99.90
2017-12-17T00:33:15.693Z,99.90
2017-12-17T00:35:16.863Z,99.90
2017-12-17T00:37:17.876Z,99.90
2017-12-17T00:39:18.912Z,99.90
2017-12-17T00:41:19.876Z,99.90
2017-12-17T00:43:20.888Z,99.90
2017-12-17T00:45:21.854Z,99.90
2017-12-17T00:47:27.158Z,99.90
2017-12-17T00:49:29.931Z,99.90
2017-12-17T00:51:31.021Z,99.90
2017-12-17T00:53:32.038Z,99.90
2017-12-17T00:55:33.029Z,99.90
2017-12-17T00:57:34.054Z,99.90
2017-12-17T00:59:35.057Z,99.90
2017-12-17T01:01:36.106Z,99.90
2017-12-17T01:03:37.129Z,99.90
2017-12-17T01:05:38.118Z,99.90
2017-12-17T01:07:39.902Z,99.90
2017-12-17T01:09:40.914Z,99.90
2017-12-17T01:11:41.947Z,99.90
2017-12-17T01:13:43.003Z,99.90
2017-12-17T01:15:43.994Z,99.90
2017-12-17T01:17:45.025Z,99.90
2017-12-17T01:19:46.752Z,99.90
2017-12-17T01:21:47.761Z,99.90
2017-12-17T01:23:48.759Z,99.90
2017-12-17T01:25:49.834Z,99.90
2017-12-17T01:27:51.610Z,99.90
2017-12-17T01:29:53.343Z,99.90
2017-12-17T01:31:54.386Z,99.90
2017-12-17T01:33:55.407Z,99.90
2017-12-17T01:35:56.400Z,99.90
2017-12-17T01:37:58.168Z,99.90
2017-12-17T01:39:59.144Z,99.90
2017-12-17T01:42:00.121Z,99.90
2017-12-17T01:44:01.152Z,99.90
2017-12-17T01:46:02.143Z,99.90
2017-12-17T01:48:03.933Z,99.90
2017-12-17T01:50:04.976Z,99.90
2017-12-17T01:52:06.748Z,99.90
2017-12-17T01:54:07.738Z,99.90
2017-12-17T01:56:08.739Z,99.90
2017-12-17T01:58:09.753Z,99.90
2017-12-17T02:00:11.525Z,99.90
2017-12-17T02:02:12.589Z,99.90
2017-12-17T02:04:14.349Z,99.90
2017-12-17T02:06:16.089Z,99.90
2017-12-17T02:08:17.072Z,99.90
2017-12-17T02:10:18.099Z,99.90
2017-12-17T02:12:19.854Z,99.90
2017-12-17T02:14:20.862Z,99.90
2017-12-17T02:16:21.867Z,99.90
2017-12-17T02:18:23.609Z,99.90
2017-12-17T02:20:24.722Z,99.90
2017-12-17T02:22:25.761Z,99.90
2017-12-17T02:24:26.840Z,99.90
2017-12-17T02:26:27.929Z,99.90
2017-12-17T02:28:29.722Z,99.90
2017-12-17T02:30:30.735Z,99.90
2017-12-17T02:32:31.750Z,99.90
2017-12-17T02:34:32.779Z,99.90
2017-12-17T02:36:33.835Z,99.90
2017-12-17T02:38:34.891Z,99.90
2017-12-17T02:40:35.925Z,99.90
2017-12-17T02:42:36.998Z,99.90
2017-12-17T02:44:38.011Z,99.90
2017-12-17T02:46:39.029Z,99.90
2017-12-17T02:48:40.081Z,99.90
2017-12-17T02:50:41.069Z,99.90
2017-12-17T02:52:42.105Z,99.90
2017-12-17T02:54:43.141Z,99.90
2017-12-17T02:56:44.190Z,99.90
2017-12-17T02:58:45.198Z,99.90
2017-12-17T03:00:46.445Z,99.90
2017-12-17T03:02:47.431Z,99.90
2017-12-17T03:04:48.436Z,99.90
2017-12-17T03:06:49.429Z,99.90
2017-12-17T03:08:50.436Z,99.90
2017-12-17T03:10:52.232Z,99.90
2017-12-17T03:12:53.241Z,99.90
2017-12-17T03:14:54.224Z,99.90
2017-12-17T03:16:55.285Z,99.90
2017-12-17T03:18:56.280Z,99.90
2017-12-17T03:20:58.041Z,99.90
2017-12-17T03:22:59.824Z,99.90
2017-12-17T03:25:00.805Z,99.90
2017-12-17T03:27:01.808Z,99.90
2017-12-17T03:29:03.595Z,99.90
2017-12-17T03:31:04.621Z,99.90
2017-12-17T03:33:06.442Z,99.90
2017-12-17T03:35:07.429Z,99.90
2017-12-17T03:37:08.457Z,99.90
2017-12-17T03:39:09.487Z,99.90
2017-12-17T03:41:10.504Z,99.90
2017-12-17T03:43:11.537Z,99.90
2017-12-17T03:45:13.064Z,99.90
2017-12-17T03:47:14.082Z,99.90
2017-12-17T03:49:15.101Z,99.90
2017-12-17T03:51:16.093Z,99.90
2017-12-17T03:53:17.109Z,99.90
2017-12-17T03:55:18.130Z,99.90
2017-12-17T03:57:19.197Z,99.90
2017-12-17T03:59:20.221Z,99.90
2017-12-17T04:01:21.264Z,99.90
2017-12-17T04:03:23.054Z,99.90
2017-12-17T04:05:24.273Z,99.90
2017-12-17T04:07:26.040Z,99.90
2017-12-17T04:09:27.762Z,99.90
2017-12-17T04:11:28.796Z,99.90
2017-12-17T04:13:30.036Z,99.90
2017-12-17T04:15:31.049Z,99.90
2017-12-17T04:17:32.808Z,99.90
2017-12-17T04:19:33.880Z,99.90
2017-12-17T04:21:34.944Z,99.90
2017-12-17T04:23:35.959Z,99.90
2017-12-17T04:25:37.692Z,99.90
2017-12-17T04:27:38.717Z,99.90
2017-12-17T04:29:39.729Z,99.90
2017-12-17T04:31:40.800Z,99.90
2017-12-17T04:33:41.770Z,99.90
2017-12-17T04:35:42.772Z,99.90
2017-12-17T04:37:43.777Z,99.90
2017-12-17T04:39:44.776Z,99.90
2017-12-17T04:41:45.823Z,99.90
2017-12-17T04:43:46.802Z,99.90
2017-12-17T04:45:47.834Z,99.90
2017-12-17T04:47:48.806Z,99.90
2017-12-17T04:49:49.849Z,99.90
2017-12-17T04:51:50.855Z,99.90
2017-12-17T04:53:51.884Z,99.90
2017-12-17T04:55:53.674Z,99.90
2017-12-17T04:57:54.658Z,99.90
2017-12-17T04:59:55.706Z,99.90
2017-12-17T05:01:56.680Z,99.90
2017-12-17T05:03:57.694Z,99.90
2017-12-17T05:05:58.730Z,99.90
2017-12-17T05:07:59.757Z,99.90
2017-12-17T05:10:00.725Z,99.90
2017-12-17T05:12:01.686Z,99.90
2017-12-17T05:14:02.694Z,99.90
2017-12-17T05:16:03.682Z,99.90
2017-12-17T05:18:04.705Z,99.90
2017-12-17T05:20:05.698Z,99.90
2017-12-17T05:22:06.683Z,99.90
2017-12-17T05:24:07.700Z,99.90
2017-12-17T05:26:09.434Z,99.90
2017-12-17T05:28:10.489Z,99.90
2017-12-17T05:30:11.536Z,99.90
2017-12-17T05:32:12.676Z,99.90
2017-12-17T05:34:13.646Z,99.90
2017-12-17T05:36:14.686Z,99.90
2017-12-17T05:38:15.734Z,99.90
2017-12-17T05:40:16.824Z,99.90
2017-12-17T05:42:17.798Z,99.90
2017-12-17T05:44:18.801Z,99.90
2017-12-17T05:46:19.806Z,99.90
2017-12-17T05:48:20.799Z,99.90
2017-12-17T05:50:21.821Z,99.90
2017-12-17T05:52:22.815Z,99.90
2017-12-17T05:54:23.823Z,99.90
2017-12-17T05:56:25.559Z,99.90
2017-12-17T05:58:26.545Z,99.90
2017-12-17T06:00:28.289Z,99.90
2017-12-17T06:02:29.285Z,99.90
2017-12-17T06:04:30.288Z,99.90
2017-12-17T06:06:32.061Z,99.90
2017-12-17T06:08:33.801Z,99.90
2017-12-17T06:10:34.802Z,99.90
2017-12-17T06:12:35.844Z,99.90
2017-12-17T06:14:36.832Z,99.90
2017-12-17T06:16:37.868Z,99.90
2017-12-17T06:18:38.902Z,99.90
2017-12-17T06:20:39.912Z,99.90
2017-12-17T06:22:41.665Z,99.90
2017-12-17T06:24:43.418Z,99.90
2017-12-17T06:26:44.477Z,99.90
2017-12-17T06:28:45.497Z,99.90
2017-12-17T06:30:46.510Z,99.90
2017-12-17T06:32:47.488Z,99.90
2017-12-17T06:34:48.476Z,99.90
2017-12-17T06:36:49.472Z,99.90
2017-12-17T06:38:50.472Z,99.90
2017-12-17T06:40:51.473Z,99.90
2017-12-17T06:42:52.442Z,99.90
2017-12-17T06:44:53.443Z,99.90
2017-12-17T06:46:54.452Z,99.90
2017-12-17T06:48:56.197Z,99.90
2017-12-17T06:50:57.213Z,99.90
2017-12-17T06:52:58.319Z,99.90
2017-12-17T06:55:00.121Z,99.90
2017-12-17T06:57:02.027Z,99.90
2017-12-17T06:59:03.061Z,99.90
2017-12-17T07:01:04.843Z,99.90
2017-12-17T07:03:06.564Z,99.90
2017-12-17T07:05:07.566Z,99.90
2017-12-17T07:07:09.261Z,99.90
2017-12-17T07:09:10.253Z,99.90
2017-12-17T07:11:11.264Z,99.90
2017-12-17T07:13:12.965Z,99.90
2017-12-17T07:15:14.149Z,99.90
2017-12-17T07:17:15.151Z,99.90
2017-12-17T07:19:16.199Z,99.90
2017-12-17T07:21:17.216Z,99.90
2017-12-17T07:23:18.268Z,99.90
2017-12-17T07:25:19.286Z,99.90
2017-12-17T07:27:20.273Z,99.90
2017-12-17T07:29:21.261Z,99.90
2017-12-17T07:31:22.973Z,99.90
2017-12-17T07:33:24.694Z,99.90
2017-12-17T07:35:26.419Z,99.90
2017-12-17T07:37:27.396Z,99.90
2017-12-17T07:39:28.378Z,99.90
2017-12-17T07:41:29.373Z,99.90
2017-12-17T07:43:30.360Z,99.90
2017-12-17T07:45:32.221Z,99.90
2017-12-17T07:47:33.214Z,99.90
2017-12-17T07:49:34.210Z,99.90
2017-12-17T07:51:35.939Z,99.90
2017-12-17T07:53:36.941Z,99.90
2017-12-17T07:55:37.934Z,99.90
2017-12-17T07:57:39.106Z,99.90
2017-12-17T07:59:40.843Z,99.90
2017-12-17T08:01:41.818Z,99.90
2017-12-17T08:03:43.514Z,99.90
2017-12-17T08:05:44.505Z,99.90
2017-12-17T08:07:45.477Z,99.90
2017-12-17T08:09:47.188Z,99.90
2017-12-17T08:11:48.153Z,99.90
2017-12-17T08:13:49.170Z,99.90
2017-12-17T08:15:50.186Z,99.90
2017-12-17T08:17:51.173Z,99.90
2017-12-17T08:19:52.168Z,99.90
2017-12-17T08:21:53.164Z,99.90
2017-12-17T08:23:54.138Z,99.90
2017-12-17T08:25:55.101Z,99.90
2017-12-17T08:27:56.812Z,99.90
2017-12-17T08:29:57.793Z,99.90
2017-12-17T08:31:58.777Z,99.90
2017-12-17T08:33:59.781Z,99.90
2017-12-17T08:36:00.791Z,99.90
2017-12-17T08:38:01.827Z,99.90
2017-12-17T08:40:02.812Z,99.90
2017-12-17T08:42:03.810Z,99.90
2017-12-17T08:44:04.799Z,99.90
2017-12-17T08:46:05.740Z,99.90
2017-12-17T08:48:06.732Z,99.90
2017-12-17T08:50:07.968Z,99.90
2017-12-17T08:52:09.063Z,99.90
2017-12-17T08:54:10.059Z,99.90
2017-12-17T08:56:11.027Z,99.90
2017-12-17T08:58:12.776Z,99.90
2017-12-17T09:00:13.800Z,99.90
2017-12-17T09:02:14.810Z,99.90
2017-12-17T09:04:15.780Z,99.90
2017-12-17T09:06:16.794Z,99.90
2017-12-17T09:08:17.800Z,99.90
2017-12-17T09:10:18.802Z,99.90
2017-12-17T09:12:19.789Z,99.70
2017-12-17T09:14:20.775Z,99.10
2017-12-17T09:16:22.501Z,98.90
2017-12-17T09:18:23.462Z,98.90
2017-12-17T09:20:25.349Z,98.50
2017-12-17T09:22:26.354Z,94.90
2017-12-17T09:24:28.125Z,93.80
2017-12-17T09:26:29.144Z,90.60
2017-12-17T09:28:30.138Z,81.80
2017-12-17T09:30:31.133Z,76.00
2017-12-17T09:32:32.294Z,77.10
2017-12-17T09:34:33.457Z,82.40
2017-12-17T09:36:34.438Z,76.10
2017-12-17T09:38:35.431Z,73.30
2017-12-17T09:40:36.409Z,70.00
2017-12-17T09:42:37.460Z,69.40
2017-12-17T09:44:38.477Z,68.10
2017-12-17T09:46:39.476Z,68.40
2017-12-17T09:48:41.225Z,59.60
2017-12-17T09:50:42.196Z,59.50
2017-12-17T09:52:43.944Z,60.50
2017-12-17T09:54:45.672Z,62.30
2017-12-17T09:56:46.642Z,62.10
2017-12-17T09:58:47.606Z,62.40
2017-12-17T10:00:49.328Z,59.80
2017-12-17T10:02:50.697Z,59.80
2017-12-17T10:04:51.764Z,61.00
2017-12-17T10:06:53.556Z,57.10
2017-12-17T10:08:54.562Z,57.00
2017-12-17T10:10:55.542Z,56.40
2017-12-17T10:12:56.693Z,55.20
2017-12-17T10:14:58.699Z,54.80
2017-12-17T10:16:59.856Z,53.70
2017-12-17T10:19:01.701Z,56.40
2017-12-17T10:21:03.724Z,56.50
2017-12-17T10:23:04.782Z,55.80
2017-12-17T10:25:07.518Z,53.80
2017-12-17T10:27:08.477Z,53.80
2017-12-17T10:29:09.452Z,53.80
2017-12-17T10:31:10.424Z,51.90
2017-12-17T10:33:11.405Z,53.00
2017-12-17T10:35:12.393Z,50.90
2017-12-17T10:37:13.353Z,51.70
2017-12-17T10:39:15.058Z,47.80
2017-12-17T10:41:16.041Z,47.90
2017-12-17T10:43:17.003Z,48.00
2017-12-17T10:45:19.137Z,44.70
2017-12-17T10:47:20.123Z,44.60
2017-12-17T10:49:22.072Z,41.80
2017-12-17T10:51:23.065Z,41.80
2017-12-17T10:53:24.021Z,42.30
2017-12-17T10:55:25.021Z,40.80
2017-12-17T10:57:26.177Z,41.30
2017-12-17T10:59:27.186Z,43.70
2017-12-17T11:01:28.171Z,42.90
2017-12-17T11:03:29.498Z,44.60
2017-12-17T11:05:30.556Z,43.30
2017-12-17T11:07:31.528Z,41.90
2017-12-17T11:09:33.268Z,42.50
2017-12-17T11:11:34.239Z,42.50
2017-12-17T11:13:35.239Z,41.20
2017-12-17T11:15:36.281Z,42.10
2017-12-17T11:17:37.257Z,43.00
2017-12-17T11:19:38.249Z,42.80
2017-12-17T11:21:39.211Z,42.00
2017-12-17T11:23:40.189Z,42.10
2017-12-17T11:25:41.193Z,40.70
2017-12-17T11:27:42.159Z,40.90
2017-12-17T11:29:43.149Z,41.00
2017-12-17T11:31:44.143Z,41.00
2017-12-17T11:33:45.130Z,43.50
2017-12-17T11:35:46.104Z,42.80
2017-12-17T11:37:47.813Z,43.10
2017-12-17T11:39:48.788Z,43.40
2017-12-17T11:41:49.760Z,40.20
2017-12-17T11:43:51.476Z,41.80
2017-12-17T11:45:52.503Z,40.90
2017-12-17T11:47:53.462Z,41.10
2017-12-17T11:49:54.469Z,39.40
2017-12-17T11:51:55.502Z,39.70
2017-12-17T11:53:57.256Z,40.10
2017-12-17T11:55:58.310Z,40.00
2017-12-17T11:57:59.351Z,39.30
2017-12-17T12:00:00.408Z,38.90
2017-12-17T12:02:02.138Z,38.70
2017-12-17T12:04:03.152Z,38.70
2017-12-17T12:06:04.142Z,39.80
2017-12-17T12:08:05.113Z,39.80
2017-12-17T12:10:06.853Z,36.90
2017-12-17T12:12:07.889Z,36.90
2017-12-17T12:14:08.975Z,36.00
2017-12-17T12:16:10.008Z,35.30
2017-12-17T12:18:10.985Z,34.50
2017-12-17T12:20:11.977Z,36.20
2017-12-17T12:22:12.961Z,35.80
2017-12-17T12:24:14.680Z,35.00
2017-12-17T12:26:15.711Z,34.90
2017-12-17T12:28:16.739Z,37.50
2017-12-17T12:30:17.740Z,36.00
2017-12-17T12:32:18.721Z,38.10
2017-12-17T12:34:20.128Z,36.80
2017-12-17T12:36:21.160Z,36.70
2017-12-17T12:38:22.155Z,37.30
2017-12-17T12:40:23.137Z,38.30
2017-12-17T12:42:24.168Z,37.50
2017-12-17T12:44:25.141Z,38.00
2017-12-17T12:46:26.149Z,37.20
2017-12-17T12:48:27.168Z,39.10
2017-12-17T12:50:28.164Z,37.50
2017-12-17T12:52:29.153Z,37.70
2017-12-17T12:54:30.133Z,38.00
2017-12-17T12:56:31.152Z,37.20
2017-12-17T12:58:32.216Z,36.10
2017-12-17T13:00:33.205Z,37.50
2017-12-17T13:02:34.178Z,37.10
2017-12-17T13:04:35.178Z,36.90
2017-12-17T13:06:36.302Z,38.80
2017-12-17T13:08:37.345Z,40.20
2017-12-17T13:10:38.333Z,40.50
2017-12-17T13:12:39.358Z,41.30
2017-12-17T13:14:40.426Z,44.90
2017-12-17T13:16:41.501Z,46.80
2017-12-17T13:18:42.525Z,48.90
2017-12-17T13:20:43.528Z,51.00
2017-12-17T13:22:44.769Z,52.00
2017-12-17T13:24:45.778Z,53.40
2017-12-17T13:26:46.842Z,54.30
2017-12-17T13:28:47.857Z,53.80
2017-12-17T13:30:48.839Z,56.80
2017-12-17T13:32:49.835Z,57.40
2017-12-17T13:34:50.809Z,60.20
2017-12-17T13:36:51.782Z,62.80
2017-12-17T13:38:52.937Z,67.90
2017-12-17T13:40:53.991Z,67.90
2017-12-17T13:42:55.057Z,65.60
2017-12-17T13:44:56.268Z,62.10
2017-12-17T13:46:57.298Z,58.10
2017-12-17T13:48:58.249Z,53.60
2017-12-17T13:50:59.245Z,53.70
2017-12-17T13:53:00.352Z,54.10
2017-12-17T13:55:01.382Z,53.20
2017-12-17T13:57:02.364Z,52.10
2017-12-17T13:59:03.312Z,53.00
2017-12-17T14:01:04.500Z,51.60
2017-12-17T14:03:05.498Z,49.50
2017-12-17T14:05:06.499Z,47.70
2017-12-17T14:07:08.232Z,50.40
2017-12-17T14:09:10.050Z,50.10
2017-12-17T14:11:11.176Z,51.50
2017-12-17T14:13:12.181Z,54.10
2017-12-17T14:15:13.213Z,56.40
2017-12-17T14:17:14.200Z,56.00
2017-12-17T14:19:15.164Z,56.40
2017-12-17T14:21:16.138Z,56.10
2017-12-17T14:23:17.147Z,57.50
2017-12-17T14:25:18.142Z,58.90
2017-12-17T14:27:19.886Z,61.30
2017-12-17T14:29:20.935Z,61.30
2017-12-17T14:31:21.968Z,59.30
2017-12-17T14:33:26.090Z,61.20
2017-12-17T14:35:27.448Z,63.10
2017-12-17T14:37:28.442Z,67.00
2017-12-17T14:39:29.476Z,71.60
2017-12-17T14:41:30.460Z,71.70
2017-12-17T14:43:32.319Z,72.00
2017-12-17T14:45:33.319Z,72.00
2017-12-17T14:47:34.325Z,76.60
2017-12-17T14:49:35.317Z,80.00
2017-12-17T14:51:36.512Z,82.70
2017-12-17T14:53:37.521Z,85.70
2017-12-17T14:55:38.500Z,87.80
2017-12-17T14:57:39.515Z,89.00
2017-12-17T14:59:40.517Z,89.00
2017-12-17T15:01:41.481Z,90.30
2017-12-17T15:03:42.549Z,90.90
2017-12-17T15:05:44.291Z,91.90
2017-12-17T15:07:45.299Z,91.80
2017-12-17T15:09:46.285Z,92.30
2017-12-17T15:11:47.256Z,92.90
2017-12-17T15:13:48.977Z,92.90
2017-12-17T15:15:50.212Z,92.90
2017-12-17T15:17:51.208Z,92.90
2017-12-17T15:19:52.198Z,92.80
2017-12-17T15:21:53.220Z,93.60
2017-12-17T15:23:54.997Z,93.30
2017-12-17T15:25:56.021Z,93.00
2017-12-17T15:27:57.028Z,93.30
2017-12-17T15:29:58.011Z,93.50
2017-12-17T15:31:58.988Z,93.70
2017-12-17T15:33:59.978Z,93.90
2017-12-17T15:36:00.966Z,94.50
2017-12-17T15:38:02.807Z,94.80
2017-12-17T15:40:03.861Z,94.70
2017-12-17T15:42:05.622Z,95.20
2017-12-17T15:44:06.628Z,95.60
2017-12-17T15:46:08.381Z,95.60
2017-12-17T15:48:09.684Z,95.60
2017-12-17T15:50:10.723Z,95.10
2017-12-17T15:52:11.720Z,94.40
2017-12-17T15:54:12.725Z,94.70
2017-12-17T15:56:14.457Z,93.70
2017-12-17T15:58:15.734Z,93.70
2017-12-17T16:00:16.736Z,93.50
2017-12-17T16:02:17.728Z,93.60
2017-12-17T16:04:18.740Z,93.60
2017-12-17T16:06:19.731Z,93.50
2017-12-17T16:08:20.721Z,93.30
2017-12-17T16:10:21.805Z,93.50
2017-12-17T16:12:22.813Z,93.30
2017-12-17T16:14:23.873Z,93.20
2017-12-17T16:16:24.864Z,94.00
2017-12-17T16:18:25.901Z,94.10
2017-12-17T16:20:26.996Z,93.90
2017-12-17T16:22:27.992Z,94.00
2017-12-17T16:24:28.977Z,94.50
2017-12-17T16:26:29.959Z,94.00
2017-12-17T16:28:30.941Z,94.80
2017-12-17T16:30:31.917Z,94.80
2017-12-17T16:32:33.200Z,94.20
2017-12-17T16:34:34.193Z,94.70
2017-12-17T16:36:35.357Z,95.20
2017-12-17T16:38:37.100Z,95.60
2017-12-17T16:40:38.063Z,95.60
2017-12-17T16:42:39.047Z,95.90
2017-12-17T16:44:40.138Z,95.80
2017-12-17T16:46:41.130Z,95.80
2017-12-17T16:48:42.144Z,96.60
2017-12-17T16:50:43.880Z,96.60
2017-12-17T16:52:44.858Z,96.30
2017-12-17T16:54:45.918Z,97.10
2017-12-17T16:56:46.893Z,97.00
2017-12-17T16:58:47.934Z,96.40
2017-12-17T17:00:48.932Z,96.20
2017-12-17T17:02:49.910Z,96.80
2017-12-17T17:04:50.942Z,96.20
2017-12-17T17:06:51.908Z,96.30
2017-12-17T17:08:52.873Z,96.50
2017-12-17T17:10:53.845Z,97.00
2017-12-17T17:12:54.872Z,97.60
2017-12-17T17:14:55.887Z,98.10
2017-12-17T17:16:56.977Z,97.90
2017-12-17T17:18:57.957Z,97.90
2017-12-17T17:20:58.996Z,98.00
2017-12-17T17:23:00.006Z,98.10
2017-12-17T17:25:01.035Z,97.80
2017-12-17T17:27:02.118Z,97.40
2017-12-17T17:29:03.089Z,97.50
2017-12-17T17:31:04.045Z,98.10
2017-12-17T17:33:05.036Z,98.10
2017-12-17T17:35:06.146Z,97.90
2017-12-17T17:37:07.138Z,97.90
2017-12-17T17:39:08.198Z,97.80
2017-12-17T17:41:09.185Z,97.90
2017-12-17T17:43:10.200Z,97.60
2017-12-17T17:45:11.967Z,97.60
2017-12-17T17:47:13.161Z,97.60
2017-12-17T17:49:14.932Z,97.70
2017-12-17T17:51:15.989Z,97.70
2017-12-17T17:53:17.245Z,98.00
2017-12-17T17:55:18.239Z,98.10
2017-12-17T17:57:19.301Z,98.20
2017-12-17T17:59:20.276Z,98.50
2017-12-17T18:01:21.264Z,98.60
2017-12-17T18:03:22.269Z,98.60
2017-12-17T18:05:23.252Z,98.60
2017-12-17T18:07:24.222Z,98.70
2017-12-17T18:09:25.223Z,98.80
2017-12-17T18:11:26.330Z,98.90
2017-12-17T18:13:27.403Z,98.90
2017-12-17T18:15:28.453Z,99.20
2017-12-17T18:17:29.490Z,99.40
2017-12-17T18:19:30.529Z,99.40
2017-12-17T18:21:31.518Z,99.30
2017-12-17T18:23:32.586Z,99.40
2017-12-17T18:25:33.504Z,99.40
2017-12-17T18:27:34.500Z,99.40
2017-12-17T18:29:35.500Z,99.50
2017-12-17T18:31:36.464Z,99.30
2017-12-17T18:33:37.541Z,99.30
2017-12-17T18:35:38.817Z,99.40
2017-12-17T18:37:39.804Z,99.50
2017-12-17T18:39:40.812Z,99.50
2017-12-17T18:41:42.451Z,99.70
2017-12-17T18:43:43.550Z,99.80
2017-12-17T18:45:44.604Z,99.70
2017-12-17T18:47:45.577Z,99.90
2017-12-17T18:49:47.301Z,99.90
2017-12-17T18:51:48.377Z,99.90
2017-12-17T18:53:49.567Z,99.90
2017-12-17T18:55:50.553Z,99.90
2017-12-17T18:57:51.614Z,99.90
2017-12-17T18:59:52.611Z,99.90
2017-12-17T19:01:53.613Z,99.90
2017-12-17T19:03:56.696Z,99.90
2017-12-17T19:05:58.552Z,99.90
2017-12-17T19:07:59.750Z,99.90
2017-12-17T19:10:00.880Z,99.90
2017-12-17T19:12:02.769Z,99.90
2017-12-17T19:14:03.789Z,99.90
2017-12-17T19:16:04.788Z,99.90
2017-12-17T19:18:05.806Z,99.90
2017-12-17T19:20:06.796Z,99.90
2017-12-17T19:22:08.793Z,99.90
2017-12-17T19:24:09.822Z,99.90
2017-12-17T19:26:10.812Z,99.90
2017-12-17T19:28:11.871Z,99.90
2017-12-17T19:30:12.901Z,99.90
2017-12-17T19:32:13.885Z,99.90
2017-12-17T19:34:14.913Z,99.90
2017-12-17T19:36:15.908Z,99.90
2017-12-17T19:38:16.937Z,99.90
2017-12-17T19:40:17.912Z,99.90
2017-12-17T19:42:18.957Z,99.90
2017-12-17T19:44:20.276Z,99.90
2017-12-17T19:46:22.025Z,99.90
2017-12-17T19:48:23.056Z,99.90
2017-12-17T19:50:24.026Z,99.90
2017-12-17T19:52:25.016Z,99.90
2017-12-17T19:54:26.020Z,99.90
2017-12-17T19:56:27.021Z,99.90
2017-12-17T19:58:28.762Z,99.90
2017-12-17T20:00:30.025Z,99.90
2017-12-17T20:02:31.018Z,99.90
2017-12-17T20:04:32.009Z,99.90
2017-12-17T20:06:33.027Z,99.90
2017-12-17T20:08:34.115Z,99.90
2017-12-17T20:10:35.119Z,99.90
2017-12-17T20:12:37.033Z,99.90
2017-12-17T20:14:38.692Z,99.90
2017-12-17T20:16:39.840Z,99.90
2017-12-17T20:18:40.910Z,99.90
2017-12-17T20:20:41.908Z,99.90
2017-12-17T20:22:55.798Z,99.90
2017-12-17T20:24:56.937Z,99.90
2017-12-17T20:26:58.013Z,99.90
2017-12-17T20:28:59.004Z,99.90
2017-12-17T20:31:00.168Z,99.90
2017-12-17T20:33:01.192Z,99.90
2017-12-17T20:35:02.310Z,99.90
2017-12-17T20:37:03.378Z,99.90
2017-12-17T20:39:04.414Z,99.90
2017-12-17T20:41:05.515Z,99.90
2017-12-17T20:43:06.477Z,99.90
2017-12-17T20:45:07.476Z,99.90
2017-12-17T20:47:09.509Z,99.90
2017-12-17T20:49:11.342Z,99.90
2017-12-17T20:51:12.324Z,99.90
2017-12-17T20:53:13.374Z,99.90
2017-12-17T20:55:27.516Z,99.90
2017-12-17T20:57:29.032Z,99.90
2017-12-17T20:59:30.194Z,99.90
2017-12-17T21:01:33.389Z,99.90
2017-12-17T21:03:34.725Z,99.90
2017-12-17T21:05:36.134Z,99.90
2017-12-17T21:07:37.367Z,99.90
2017-12-17T21:09:38.490Z,99.90
2017-12-17T21:11:40.256Z,99.90
2017-12-17T21:13:42.385Z,99.90
2017-12-17T21:15:43.543Z,99.90
2017-12-17T21:17:44.537Z,99.90
2017-12-17T21:19:45.578Z,99.90
2017-12-17T21:21:59.743Z,99.90
2017-12-17T21:24:02.832Z,99.90
2017-12-17T21:26:06.111Z,99.90
2017-12-17T21:28:07.206Z,99.90
2017-12-17T21:30:10.738Z,99.90
2017-12-17T21:32:11.782Z,99.90
2017-12-17T21:34:12.754Z,99.90
2017-12-17T21:36:14.487Z,99.90
2017-12-17T21:38:15.525Z,99.90
2017-12-17T21:40:16.489Z,99.90
2017-12-17T21:42:17.517Z,99.90
2017-12-17T21:44:18.997Z,99.90
2017-12-17T21:46:19.981Z,99.90
2017-12-17T21:48:20.964Z,99.90
2017-12-17T21:50:21.917Z,99.90
2017-12-17T21:52:23.060Z,99.90
2017-12-17T21:54:24.205Z,99.90
2017-12-17T21:56:25.173Z,99.90
2017-12-17T21:58:27.227Z,99.90
2017-12-17T22:00:28.377Z,99.90
2017-12-17T22:02:29.358Z,99.90
2017-12-17T22:04:30.457Z,99.90
2017-12-17T22:06:32.165Z,99.90
2017-12-17T22:08:33.170Z,99.90
2017-12-17T22:10:34.281Z,99.90
2017-12-17T22:12:35.272Z,99.90
2017-12-17T22:14:36.729Z,99.90
2017-12-17T22:16:37.770Z,99.90
2017-12-17T22:18:38.737Z,99.90
2017-12-17T22:20:41.255Z,99.90
2017-12-17T22:22:42.276Z,99.90
2017-12-17T22:24:43.309Z,99.90
2017-12-17T22:26:44.270Z,99.90
2017-12-17T22:28:46.149Z,99.90
2017-12-17T22:30:47.156Z,99.90
2017-12-17T22:32:48.394Z,99.90
2017-12-17T22:34:49.412Z,99.90
2017-12-17T22:36:50.426Z,99.90
2017-12-17T22:38:51.541Z,99.90
2017-12-17T22:40:53.250Z,99.90
2017-12-17T22:42:54.283Z,99.90
2017-12-17T22:44:55.352Z,99.90
2017-12-17T22:46:56.413Z,99.90
2017-12-17T22:48:57.704Z,99.90
2017-12-17T22:50:58.870Z,99.90
2017-12-17T22:52:59.904Z,99.90
2017-12-17T22:55:01.601Z,99.90
2017-12-17T22:57:02.625Z,99.90
2017-12-17T22:59:03.657Z,99.90
2017-12-17T23:01:04.907Z,99.90
2017-12-17T23:03:06.724Z,99.90
2017-12-17T23:05:07.738Z,99.90
2017-12-17T23:07:09.464Z,99.90
2017-12-17T23:09:10.462Z,99.90
2017-12-17T23:11:11.475Z,99.90
2017-12-17T23:13:12.636Z,99.90
2017-12-17T23:15:25.415Z,99.90
2017-12-17T23:17:26.448Z,99.90
2017-12-17T23:19:28.392Z,99.90
2017-12-17T23:21:29.474Z,99.90
2017-12-17T23:23:30.470Z,99.90
2017-12-17T23:25:31.917Z,99.90
2017-12-17T23:27:34.092Z,99.80
2017-12-17T23:29:35.802Z,99.60
2017-12-17T23:31:36.941Z,99.60
2017-12-17T23:33:37.910Z,99.70
2017-12-17T23:35:40.719Z,99.80
2017-12-17T23:37:41.779Z,99.80
2017-12-17T23:39:42.837Z,99.70
2017-12-17T23:41:44.667Z,99.60
2017-12-17T23:43:47.329Z,99.60
2017-12-17T23:45:49.261Z,99.30
2017-12-17T23:47:50.222Z,99.40
2017-12-17T23:49:51.933Z,99.60
2017-12-17T23:51:52.975Z,99.60
2017-12-17T23:53:53.998Z,99.40
2017-12-17T23:55:55.243Z,99.10
2017-12-17T23:57:56.288Z,99.20
2017-12-17T23:59:57.600Z,99.20
